createdAt,value
2018-07-31T00:01:51.903Z,78.78
2018-07-31T00:04:20.254Z,79.02
2018-07-31T00:06:48.625Z,78.84
2018-07-31T00:09:16.977Z,79.00
2018-07-31T00:11:45.297Z,78.90
2018-07-31T00:14:13.621Z,78.89
2018-07-31T00:16:41.945Z,79.19
2018-07-31T00:19:10.264Z,79.27
2018-07-31T00:21:38.607Z,79.20
2018-07-31T00:24:06.939Z,79.05
2018-07-31T00:26:35.272Z,78.72
2018-07-31T00:29:03.028Z,78.48
2018-07-31T00:31:31.929Z,78.31
2018-07-31T00:34:00.260Z,78.28
2018-07-31T00:36:28.593Z,78.11
2018-07-31T00:38:56.933Z,78.24
2018-07-31T00:41:24.705Z,78.25
2018-07-31T00:43:53.052Z,78.31
2018-07-31T00:46:21.389Z,78.20
2018-07-31T00:48:50.311Z,78.09
2018-07-31T00:51:18.662Z,78.49
2018-07-31T00:53:46.430Z,78.56
2018-07-31T00:56:15.345Z,79.19
2018-07-31T00:58:43.699Z,79.51
2018-07-31T01:01:12.015Z,79.51
2018-07-31T01:03:40.372Z,79.68
2018-07-31T01:06:08.699Z,79.77
2018-07-31T01:08:36.497Z,79.86
2018-07-31T01:11:05.471Z,80.04
2018-07-31T01:13:33.750Z,80.37
2018-07-31T01:16:02.109Z,80.73
2018-07-31T01:18:30.072Z,80.65
2018-07-31T01:20:58.768Z,80.96
2018-07-31T01:23:26.521Z,81.22
2018-07-31T01:25:54.852Z,81.71
2018-07-31T01:28:23.771Z,82.02
2018-07-31T01:30:52.109Z,82.03
2018-07-31T01:33:20.451Z,82.07
2018-07-31T01:35:48.789Z,82.16
2018-07-31T01:38:18.716Z,82.04
2018-07-31T01:40:45.466Z,82.06
2018-07-31T01:43:13.786Z,82.06
2018-07-31T01:45:42.166Z,82.14
2018-07-31T01:48:10.476Z,82.35
2018-07-31T01:50:38.809Z,82.66
2018-07-31T01:53:07.141Z,82.99
2018-07-31T01:55:34.885Z,82.78
2018-07-31T01:58:03.800Z,82.18
2018-07-31T02:00:32.125Z,81.99
2018-07-31T02:03:00.143Z,81.64
2018-07-31T02:05:28.781Z,81.94
2018-07-31T02:07:57.116Z,82.05
2018-07-31T02:10:25.485Z,81.69
2018-07-31T02:12:53.805Z,81.17
2018-07-31T02:15:22.146Z,81.21
2018-07-31T02:17:50.470Z,81.97
2018-07-31T02:20:18.799Z,82.15
2018-07-31T02:22:47.114Z,82.26
2018-07-31T02:25:15.450Z,82.46
2018-07-31T02:27:43.763Z,82.62
2018-07-31T02:30:12.090Z,82.97
2018-07-31T02:35:08.735Z,83.09
2018-07-31T02:37:37.060Z,82.86
2018-07-31T02:40:05.386Z,82.84
2018-07-31T02:42:33.715Z,83.08
2018-07-31T02:45:02.035Z,82.82
2018-07-31T02:47:30.366Z,82.00
2018-07-31T02:49:58.700Z,81.52
2018-07-31T02:52:27.025Z,81.05
2018-07-31T02:54:55.368Z,80.46
2018-07-31T02:57:23.680Z,80.37
2018-07-31T02:59:51.428Z,80.24
2018-07-31T03:02:19.733Z,80.17
2018-07-31T03:04:48.058Z,80.19
2018-07-31T03:07:16.965Z,81.08
2018-07-31T03:09:44.718Z,81.88
2018-07-31T03:12:13.647Z,82.48
2018-07-31T03:14:41.998Z,83.04
2018-07-31T03:17:09.950Z,83.55
2018-07-31T03:19:38.670Z,83.81
2018-07-31T03:22:06.987Z,83.91
2018-07-31T03:24:35.302Z,83.88
2018-07-31T03:27:03.633Z,83.95
2018-07-31T03:29:32.004Z,83.74
2018-07-31T03:32:00.311Z,83.69
2018-07-31T03:34:30.744Z,83.42
2018-07-31T03:36:56.365Z,83.38
2018-07-31T03:39:25.864Z,83.26
2018-07-31T03:41:53.603Z,83.26
2018-07-31T03:44:21.351Z,83.20
2018-07-31T03:46:49.669Z,83.11
2018-07-31T03:49:18.565Z,83.15
2018-07-31T03:51:46.874Z,83.14
2018-07-31T03:54:17.050Z,82.61
2018-07-31T03:56:43.634Z,82.09
2018-07-31T03:59:11.368Z,81.67
2018-07-31T04:01:40.350Z,81.04
2018-07-31T04:04:08.671Z,80.54
2018-07-31T04:06:36.991Z,80.64
2018-07-31T04:09:05.321Z,80.53
2018-07-31T04:11:33.066Z,80.34
2018-07-31T04:14:02.017Z,80.04
2018-07-31T04:16:29.766Z,80.16
2018-07-31T04:18:58.957Z,80.37
2018-07-31T04:21:27.078Z,80.40
2018-07-31T04:24:05.942Z,80.21
2018-07-31T04:26:33.754Z,80.16
2018-07-31T04:29:02.636Z,79.85
2018-07-31T04:31:30.491Z,79.77
2018-07-31T04:34:00.032Z,79.68
2018-07-31T04:36:27.046Z,79.52
2018-07-31T04:38:55.369Z,79.13
2018-07-31T04:41:23.919Z,78.77
2018-07-31T04:43:52.017Z,78.63
2018-07-31T04:46:20.913Z,78.70
2018-07-31T04:48:49.230Z,78.83
2018-07-31T04:51:17.549Z,78.54
2018-07-31T04:53:45.297Z,78.22
2018-07-31T04:56:14.200Z,77.66
2018-07-31T04:58:43.588Z,77.38
2018-07-31T05:01:10.935Z,77.15
2018-07-31T05:03:39.305Z,76.95
2018-07-31T05:06:08.348Z,76.96
2018-07-31T05:08:36.185Z,76.80
2018-07-31T05:11:04.317Z,76.46
2018-07-31T05:13:32.169Z,76.03
2018-07-31T05:16:01.841Z,75.67
2018-07-31T05:18:31.551Z,75.31
2018-07-31T05:20:58.484Z,75.05
2018-07-31T05:23:27.013Z,74.84
2018-07-31T05:25:55.372Z,74.69
2018-07-31T05:28:23.124Z,74.61
2018-07-31T05:30:52.047Z,74.63
2018-07-31T05:33:20.374Z,74.57
2018-07-31T05:35:48.709Z,74.61
2018-07-31T05:38:17.045Z,74.92
2018-07-31T05:40:45.383Z,75.22
2018-07-31T05:43:13.701Z,75.36
2018-07-31T05:45:42.045Z,75.41
2018-07-31T05:48:10.365Z,75.33
2018-07-31T05:50:38.692Z,75.46
2018-07-31T05:53:06.597Z,75.20
2018-07-31T05:55:35.377Z,74.37
2018-07-31T05:58:03.706Z,74.37
2018-07-31T06:00:31.462Z,74.33
2018-07-31T06:03:00.379Z,74.62
2018-07-31T06:05:28.125Z,74.88
2018-07-31T06:07:57.470Z,75.00
2018-07-31T06:10:26.389Z,75.12
2018-07-31T06:12:54.125Z,75.43
2018-07-31T06:15:22.480Z,75.44
2018-07-31T06:17:50.822Z,75.32
2018-07-31T06:20:19.721Z,75.34
2018-07-31T06:22:47.482Z,75.28
2018-07-31T06:31:17.992Z,75.64
2018-07-31T06:33:44.930Z,74.66
2018-07-31T06:36:13.530Z,73.56
2018-07-31T06:41:43.806Z,73.33
2018-07-31T06:44:12.127Z,73.21
2018-07-31T06:46:39.871Z,73.24
2018-07-31T06:49:08.814Z,72.79
2018-07-31T06:51:36.525Z,72.93
2018-07-31T06:54:05.442Z,72.72
2018-07-31T06:56:33.222Z,72.75
2018-07-31T06:59:02.113Z,72.76
2018-07-31T07:01:30.433Z,72.64
2018-07-31T07:03:58.769Z,72.70
2018-07-31T07:06:27.081Z,72.78
2018-07-31T07:08:55.084Z,72.65
2018-07-31T07:11:23.153Z,72.77
2018-07-31T07:13:52.082Z,72.27
2018-07-31T07:16:19.802Z,71.89
2018-07-31T07:18:48.768Z,71.82
2018-07-31T07:21:17.098Z,71.81
2018-07-31T07:23:45.446Z,71.87
2018-07-31T07:26:13.204Z,71.41
2018-07-31T07:28:42.136Z,70.99
2018-07-31T07:31:10.464Z,70.87
2018-07-31T07:33:38.261Z,70.57
2018-07-31T07:36:06.781Z,70.74
2018-07-31T07:38:35.004Z,70.51
2018-07-31T07:41:03.758Z,70.37
2018-07-31T07:43:32.077Z,70.38
2018-07-31T07:46:00.406Z,70.26
2018-07-31T07:48:28.179Z,69.95
2018-07-31T07:50:57.049Z,69.82
2018-07-31T07:53:24.808Z,69.49
2018-07-31T07:55:53.696Z,68.66
2018-07-31T07:58:22.032Z,68.95
2018-07-31T08:00:50.347Z,68.40
2018-07-31T08:03:18.680Z,68.33
2018-07-31T08:05:47.030Z,68.52
2018-07-31T08:08:15.452Z,68.19
2018-07-31T08:10:46.254Z,68.17
2018-07-31T08:13:14.026Z,68.49
2018-07-31T08:15:42.938Z,68.45
2018-07-31T08:18:11.258Z,68.45
2018-07-31T08:20:39.030Z,68.25
2018-07-31T08:23:07.949Z,67.98
2018-07-31T08:25:35.704Z,67.59
2018-07-31T08:28:04.006Z,67.33
2018-07-31T08:30:32.954Z,67.77
2018-07-31T08:33:00.701Z,68.22
2018-07-31T08:35:31.465Z,68.44
2018-07-31T08:38:04.935Z,68.32
2018-07-31T08:40:33.612Z,68.12
2018-07-31T08:43:01.349Z,67.85
2018-07-31T08:45:30.276Z,67.77
2018-07-31T08:47:58.066Z,67.26
2018-07-31T08:50:26.939Z,66.68
2018-07-31T08:52:55.257Z,66.84
2018-07-31T08:55:23.114Z,66.62
2018-07-31T08:57:51.979Z,66.35
2018-07-31T09:00:20.256Z,66.84
2018-07-31T09:02:48.602Z,66.45
2018-07-31T09:05:16.909Z,66.39
2018-07-31T09:07:45.251Z,66.71
2018-07-31T09:10:13.567Z,66.54
2018-07-31T09:12:41.885Z,66.67
2018-07-31T09:15:09.651Z,66.55
2018-07-31T09:17:38.609Z,66.44
2018-07-31T09:20:06.468Z,66.10
2018-07-31T09:22:35.284Z,66.02
2018-07-31T09:25:03.036Z,65.64
2018-07-31T09:27:31.392Z,65.35
2018-07-31T09:30:00.305Z,65.31
2018-07-31T09:32:28.623Z,65.08
2018-07-31T09:34:56.489Z,65.02
2018-07-31T09:37:25.384Z,64.40
2018-07-31T09:39:53.782Z,64.09
2018-07-31T09:42:22.157Z,63.73
2018-07-31T09:44:50.623Z,63.26
2018-07-31T09:47:18.996Z,62.48
2018-07-31T09:49:47.339Z,61.80
2018-07-31T09:52:16.911Z,61.64
2018-07-31T09:54:45.296Z,61.15
2018-07-31T09:57:13.688Z,61.16
2018-07-31T09:59:41.942Z,61.16
2018-07-31T10:02:10.274Z,61.19
2018-07-31T10:04:38.147Z,61.75
2018-07-31T10:07:16.735Z,62.30
2018-07-31T10:09:41.950Z,62.31
2018-07-31T10:12:10.464Z,62.51
2018-07-31T10:14:38.803Z,62.12
2018-07-31T10:17:07.224Z,62.24
2018-07-31T10:19:34.921Z,62.40
2018-07-31T10:22:03.844Z,62.46
2018-07-31T10:24:32.327Z,61.60
2018-07-31T10:27:00.014Z,61.55
2018-07-31T10:29:28.935Z,62.06
2018-07-31T10:31:56.678Z,61.58
2018-07-31T10:34:25.603Z,62.18
2018-07-31T10:36:54.019Z,62.02
2018-07-31T10:39:22.357Z,62.61
2018-07-31T10:41:50.837Z,62.53
2018-07-31T10:44:19.172Z,62.39
2018-07-31T10:46:46.937Z,62.32
2018-07-31T10:49:15.953Z,61.57
2018-07-31T10:51:43.753Z,61.45
2018-07-31T10:54:12.660Z,62.30
2018-07-31T10:56:41.108Z,62.64
2018-07-31T10:59:09.728Z,62.09
2018-07-31T11:01:37.767Z,61.72
2018-07-31T11:04:05.612Z,61.51
2018-07-31T11:06:34.551Z,61.67
2018-07-31T11:09:02.951Z,61.94
2018-07-31T11:11:31.351Z,61.85
2018-07-31T11:13:59.111Z,61.30
2018-07-31T11:16:28.108Z,61.46
2018-07-31T11:18:56.427Z,60.81
2018-07-31T11:21:24.844Z,60.57
2018-07-31T11:23:53.171Z,60.36
2018-07-31T11:26:21.550Z,60.07
2018-07-31T11:28:49.913Z,60.22
2018-07-31T11:31:18.242Z,60.76
2018-07-31T11:33:46.673Z,60.74
2018-07-31T11:36:15.011Z,60.29
2018-07-31T11:38:43.404Z,60.27
2018-07-31T11:41:11.214Z,60.12
2018-07-31T11:43:40.196Z,59.67
2018-07-31T11:46:08.636Z,59.49
2018-07-31T11:48:36.959Z,59.94
2018-07-31T11:51:05.282Z,59.04
2018-07-31T11:53:33.057Z,58.49
2018-07-31T11:56:01.964Z,57.42
2018-07-31T11:58:30.317Z,57.89
2018-07-31T12:00:58.659Z,57.26
2018-07-31T12:03:27.061Z,56.55
2018-07-31T12:05:55.402Z,56.17
2018-07-31T12:08:23.740Z,56.07
2018-07-31T12:10:52.077Z,54.88
2018-07-31T12:13:21.561Z,54.08
2018-07-31T12:15:49.923Z,53.84
2018-07-31T12:18:18.315Z,53.67
2018-07-31T12:20:46.678Z,53.29
2018-07-31T12:23:14.968Z,52.98
2018-07-31T12:25:42.720Z,52.44
2018-07-31T12:28:11.684Z,52.34
2018-07-31T12:30:40.028Z,52.08
2018-07-31T12:33:08.509Z,50.76
2018-07-31T12:35:36.783Z,50.77
2018-07-31T12:38:05.202Z,50.59
2018-07-31T12:40:37.857Z,50.77
2018-07-31T12:43:01.283Z,50.14
2018-07-31T12:45:30.209Z,50.33
2018-07-31T12:47:58.537Z,50.03
2018-07-31T12:50:26.404Z,49.19
2018-07-31T12:52:54.643Z,49.12
2018-07-31T12:55:32.898Z,48.66
2018-07-31T12:58:00.737Z,48.19
2018-07-31T13:00:29.670Z,47.46
2018-07-31T13:02:58.011Z,47.71
2018-07-31T13:05:26.566Z,47.05
2018-07-31T13:07:54.128Z,47.15
2018-07-31T13:10:22.465Z,46.55
2018-07-31T13:12:51.413Z,45.88
2018-07-31T13:15:19.401Z,45.95
2018-07-31T13:17:48.161Z,45.12
2018-07-31T13:20:16.525Z,44.67
2018-07-31T13:22:44.851Z,44.38
2018-07-31T13:25:13.126Z,44.15
2018-07-31T13:27:41.584Z,44.13
2018-07-31T13:30:10.314Z,43.91
2018-07-31T13:32:38.415Z,43.82
2018-07-31T13:35:06.760Z,43.67
2018-07-31T13:37:35.115Z,43.29
2018-07-31T13:40:02.864Z,42.98
2018-07-31T13:42:31.219Z,41.98
2018-07-31T13:45:00.152Z,41.80
2018-07-31T13:47:28.536Z,41.58
2018-07-31T13:49:56.880Z,41.65
2018-07-31T13:52:25.221Z,41.76
2018-07-31T13:54:53.901Z,41.44
2018-07-31T13:57:29.581Z,41.63
2018-07-31T13:59:50.721Z,41.30
2018-07-31T14:02:19.052Z,40.88
2018-07-31T14:04:50.599Z,41.59
2018-07-31T14:07:18.995Z,40.80
2018-07-31T14:09:47.321Z,40.50
2018-07-31T14:12:15.672Z,40.30
2018-07-31T14:14:44.030Z,40.05
2018-07-31T14:17:11.788Z,40.22
2018-07-31T14:19:40.828Z,40.13
2018-07-31T14:22:09.162Z,39.70
2018-07-31T14:24:38.346Z,40.24
2018-07-31T14:27:05.852Z,39.18
2018-07-31T14:32:30.740Z,38.41
2018-07-31T14:34:59.855Z,38.31
2018-07-31T14:37:29.010Z,38.68
2018-07-31T14:39:57.367Z,38.36
2018-07-31T14:42:25.705Z,38.44
2018-07-31T14:44:53.831Z,38.95
2018-07-31T14:50:21.240Z,39.70
2018-07-31T14:52:49.584Z,38.98
2018-07-31T14:55:17.934Z,38.00
2018-07-31T14:57:45.879Z,38.20
2018-07-31T15:00:14.765Z,38.66
2018-07-31T15:02:43.134Z,38.71
2018-07-31T15:05:11.958Z,38.96
2018-07-31T15:07:51.732Z,38.60
2018-07-31T15:10:23.789Z,38.33
2018-07-31T15:12:51.525Z,38.44
2018-07-31T15:15:20.469Z,39.21
2018-07-31T15:17:49.051Z,39.54
2018-07-31T15:20:17.225Z,39.65
2018-07-31T15:22:44.946Z,38.81
2018-07-31T15:25:14.809Z,38.31
2018-07-31T15:27:42.229Z,38.43
2018-07-31T15:30:11.072Z,37.70
2018-07-31T15:32:40.090Z,37.22
2018-07-31T15:35:08.509Z,37.27
2018-07-31T15:37:36.895Z,36.64
2018-07-31T15:40:05.241Z,36.51
2018-07-31T15:42:33.607Z,36.77
2018-07-31T15:45:02.138Z,36.37
2018-07-31T15:47:31.732Z,36.43
2018-07-31T15:49:59.851Z,36.68
2018-07-31T15:52:28.349Z,35.44
2018-07-31T15:54:56.642Z,35.53
2018-07-31T15:57:25.072Z,35.50
2018-07-31T15:59:53.389Z,35.32
2018-07-31T16:02:21.741Z,34.86
2018-07-31T16:05:09.401Z,34.43
2018-07-31T16:07:23.681Z,33.56
2018-07-31T16:09:52.044Z,32.32
2018-07-31T16:12:20.396Z,32.41
2018-07-31T16:14:48.826Z,32.16
2018-07-31T16:17:17.329Z,33.02
2018-07-31T16:19:45.576Z,33.92
2018-07-31T16:22:13.930Z,33.92
2018-07-31T16:24:42.272Z,34.24
2018-07-31T16:27:10.632Z,34.39
2018-07-31T16:29:39.204Z,34.34
2018-07-31T16:32:07.385Z,34.65
2018-07-31T16:34:35.294Z,34.76
2018-07-31T16:37:04.245Z,35.24
2018-07-31T16:39:32.006Z,35.33
2018-07-31T16:42:00.949Z,36.09
2018-07-31T16:44:29.297Z,37.39
2018-07-31T16:46:57.712Z,38.86
2018-07-31T16:49:26.053Z,40.19
2018-07-31T16:51:54.381Z,41.14
2018-07-31T16:54:22.724Z,41.77
2018-07-31T16:56:51.894Z,42.80
2018-07-31T16:59:19.421Z,43.41
2018-07-31T17:01:47.763Z,44.27
2018-07-31T17:04:16.249Z,44.89
2018-07-31T17:06:44.574Z,45.63
2018-07-31T17:09:12.468Z,46.69
2018-07-31T17:11:41.307Z,46.93
2018-07-31T17:14:09.650Z,47.25
2018-07-31T17:16:37.550Z,47.46
2018-07-31T17:19:06.338Z,47.98
2018-07-31T17:21:34.743Z,48.51
2018-07-31T17:24:03.114Z,48.93
2018-07-31T17:26:33.437Z,49.43
2018-07-31T17:29:01.786Z,49.81
2018-07-31T17:31:30.124Z,50.41
2018-07-31T17:33:57.982Z,50.70
2018-07-31T17:36:26.946Z,50.78
2018-07-31T17:38:55.291Z,51.09
2018-07-31T17:41:23.036Z,51.30
2018-07-31T17:43:51.972Z,51.63
2018-07-31T17:46:21.189Z,51.99
2018-07-31T17:48:50.454Z,52.53
2018-07-31T17:51:18.814Z,52.66
2018-07-31T17:53:46.574Z,52.97
2018-07-31T17:56:15.520Z,53.06
2018-07-31T17:58:43.470Z,53.21
2018-07-31T18:01:13.185Z,53.43
2018-07-31T18:03:41.597Z,53.51
2018-07-31T18:06:11.204Z,53.50
2018-07-31T18:08:38.291Z,53.47
2018-07-31T18:11:06.020Z,53.56
2018-07-31T18:13:34.950Z,53.77
2018-07-31T18:16:03.561Z,53.98
2018-07-31T18:18:31.890Z,54.41
2018-07-31T18:21:00.229Z,54.82
2018-07-31T18:23:28.635Z,55.17
2018-07-31T18:26:13.893Z,55.35
2018-07-31T18:28:42.252Z,55.51
2018-07-31T18:31:10.015Z,55.89
2018-07-31T18:33:44.609Z,56.08
2018-07-31T18:36:12.955Z,56.40
2018-07-31T18:38:41.333Z,56.66
2018-07-31T18:41:09.795Z,56.83
2018-07-31T18:43:37.431Z,57.07
2018-07-31T18:46:05.748Z,57.52
2018-07-31T18:48:34.669Z,58.08
2018-07-31T18:51:02.999Z,58.50
2018-07-31T18:53:42.999Z,59.15
2018-07-31T18:56:08.715Z,59.38
2018-07-31T18:58:37.612Z,59.61
2018-07-31T19:01:05.545Z,59.67
2018-07-31T19:03:34.417Z,59.82
2018-07-31T19:06:02.202Z,60.11
2018-07-31T19:08:31.180Z,60.49
2018-07-31T19:10:59.532Z,60.76
2018-07-31T19:13:27.865Z,61.12
2018-07-31T19:15:56.214Z,61.42
2018-07-31T19:18:24.537Z,61.72
2018-07-31T19:20:52.877Z,62.19
2018-07-31T19:23:20.633Z,62.25
2018-07-31T19:25:49.576Z,62.69
2018-07-31T19:28:17.970Z,63.02
2018-07-31T19:30:45.677Z,63.44
2018-07-31T19:33:14.662Z,63.87
2018-07-31T19:35:42.948Z,64.26
2018-07-31T19:38:14.366Z,64.95
2018-07-31T19:40:39.935Z,65.73
2018-07-31T19:43:11.424Z,66.14
2018-07-31T19:45:42.304Z,66.24
2018-07-31T19:48:10.894Z,66.24
2018-07-31T19:50:51.291Z,66.14
2018-07-31T19:53:19.625Z,65.99
2018-07-31T19:55:47.981Z,65.96
2018-07-31T19:58:15.761Z,65.84
2018-07-31T20:00:44.669Z,65.86
2018-07-31T20:03:13.012Z,65.98
2018-07-31T20:05:43.091Z,65.83
2018-07-31T20:08:11.596Z,66.28
2018-07-31T20:10:39.901Z,66.86
2018-07-31T20:13:09.622Z,67.35
2018-07-31T20:15:36.861Z,67.61
2018-07-31T20:18:05.109Z,67.80
2018-07-31T20:20:32.865Z,67.81
2018-07-31T20:23:01.821Z,67.90
2018-07-31T20:25:37.616Z,68.07
2018-07-31T20:28:08.545Z,68.39
2018-07-31T20:30:36.932Z,68.54
2018-07-31T20:33:08.270Z,68.56
2018-07-31T20:35:38.393Z,68.88
2018-07-31T20:38:06.717Z,68.88
2018-07-31T20:40:34.686Z,68.80
2018-07-31T20:43:02.821Z,68.58
2018-07-31T20:45:31.190Z,68.42
2018-07-31T20:47:59.521Z,68.56
2018-07-31T20:50:34.679Z,69.04
2018-07-31T20:53:01.230Z,69.61
2018-07-31T20:55:30.152Z,69.86
2018-07-31T20:57:58.588Z,69.92
2018-07-31T21:00:26.941Z,70.06
2018-07-31T21:02:54.825Z,70.48
2018-07-31T21:05:27.441Z,70.69
2018-07-31T21:07:56.427Z,70.85
2018-07-31T21:10:24.751Z,70.71
2018-07-31T21:13:04.691Z,70.99
2018-07-31T21:15:38.734Z,71.09
2018-07-31T21:20:40.756Z,71.87
2018-07-31T21:23:09.167Z,71.80
2018-07-31T21:25:37.911Z,71.85
2018-07-31T21:28:06.252Z,72.08
2018-07-31T21:30:34.642Z,72.09
2018-07-31T21:33:02.995Z,72.14
2018-07-31T21:35:31.336Z,72.49
2018-07-31T21:46:50.311Z,74.02
2018-07-31T21:49:18.674Z,73.93
2018-07-31T21:51:46.445Z,73.81
2018-07-31T21:54:15.380Z,73.89
2018-07-31T21:56:43.149Z,74.04
2018-07-31T21:59:12.101Z,74.12
2018-07-31T22:01:51.246Z,74.18
2018-07-31T22:04:20.230Z,74.46
2018-07-31T22:06:50.647Z,74.80
2018-07-31T22:09:19.051Z,75.04
2018-07-31T22:11:47.428Z,75.15
2018-07-31T22:14:15.847Z,75.28
2018-07-31T22:16:44.221Z,75.50
2018-07-31T22:19:12.590Z,75.51
2018-07-31T22:21:40.972Z,75.60
2018-07-31T22:24:09.365Z,75.73
2018-07-31T22:26:37.744Z,75.87
2018-07-31T22:29:06.115Z,76.01
2018-07-31T22:31:34.494Z,76.10
2018-07-31T22:34:02.886Z,76.09
2018-07-31T22:36:31.272Z,76.25
2018-07-31T22:39:11.696Z,76.37
2018-07-31T22:41:34.905Z,76.23
2018-07-31T22:44:03.386Z,75.94
2018-07-31T22:46:31.750Z,75.81
2018-07-31T22:49:00.483Z,75.79
2018-07-31T22:51:28.854Z,75.69
2018-07-31T22:53:57.230Z,75.57
2018-07-31T22:56:31.805Z,75.55
2018-07-31T22:59:01.527Z,76.02
2018-07-31T23:04:24.752Z,76.63
2018-07-31T23:06:53.124Z,77.19
2018-07-31T23:09:21.525Z,77.63
2018-07-31T23:11:49.903Z,77.78
2018-07-31T23:14:18.291Z,77.76
2018-07-31T23:16:46.671Z,77.35
2018-07-31T23:19:15.074Z,77.28
2018-07-31T23:21:44.372Z,77.17
2018-07-31T23:24:12.754Z,77.14
2018-07-31T23:26:41.157Z,77.49
2018-07-31T23:29:09.568Z,77.60
2018-07-31T23:31:37.973Z,77.50
2018-07-31T23:34:06.393Z,77.32
2018-07-31T23:36:34.793Z,77.56
2018-07-31T23:39:03.224Z,77.13
2018-07-31T23:41:31.653Z,77.14
2018-07-31T23:44:00.034Z,76.93
2018-07-31T23:46:28.411Z,76.45
2018-07-31T23:48:56.784Z,75.89
2018-07-31T23:51:25.182Z,75.68
2018-07-31T23:53:53.560Z,75.75
2018-07-31T23:56:21.971Z,75.68
2018-07-31T23:58:50.384Z,75.65
